Time;durP1;ratioP1;P1;durP2;ratioP2;P2;SDS_P1;SDS_P2;PMS_P1;PMS_P2;Temp;Humidity;BMP_temperature;BMP_pressure;BME280_temperature;BME280_humidity;BME280_pressure;Samples;Min_cycle;Max_cycle;Signal;HPM_P1;HPM_P2
2023/12/31 00:04:43;;;;;;;5.25;3.58;;;;;;;9.94;76.15;99602.00;10343274;28;20057;-59
2023/12/31 00:09:44;;;;;;;11.55;3.88;;;;;;;9.94;76.38;99587.84;10331696;28;20924;-60
2023/12/31 00:14:46;;;;;;;5.00;2.92;;;;;;;10.01;76.65;99581.88;10333773;28;20701;-60
2023/12/31 00:19:48;;;;;;;4.57;2.75;;;;;;;10.03;77.07;99568.44;10328570;28;20057;-61
2023/12/31 00:24:51;;;;;;;3.78;3.15;;;;;;;10.00;76.32;99555.41;10350575;28;20132;-60
2023/12/31 00:29:52;;;;;;;5.03;3.10;;;;;;;9.88;76.76;99550.22;10329616;28;20053;-60
2023/12/31 00:34:54;;;;;;;3.95;3.10;;;;;;;9.90;77.38;99539.44;10340398;28;20476;-61
2023/12/31 00:39:56;;;;;;;4.95;3.38;;;;;;;9.90;77.38;99526.97;10335937;28;20471;-62
2023/12/31 00:44:58;;;;;;;5.88;3.78;;;;;;;9.86;77.29;99530.91;10331945;28;20053;-61
2023/12/31 00:49:59;;;;;;;4.65;3.15;;;;;;;9.80;77.33;99525.28;10328897;28;20131;-61
2023/12/31 00:55:00;;;;;;;5.80;2.95;;;;;;;9.64;77.77;99507.22;10333926;28;20053;-62
2023/12/31 01:00:04;;;;;;;3.10;2.80;;;;;;;9.64;78.01;99499.25;10338980;28;20053;-62
2023/12/31 01:05:06;;;;;;;4.25;3.17;;;;;;;9.70;78.08;99494.22;10324468;28;20060;-60
2023/12/31 01:10:08;;;;;;;4.05;2.70;;;;;;;9.67;78.35;99483.03;10321561;28;20058;-57
2023/12/31 01:15:09;;;;;;;4.22;2.40;;;;;;;9.66;78.21;99474.19;10326904;28;20208;-61
2023/12/31 01:20:11;;;;;;;3.95;2.20;;;;;;;9.69;78.45;99478.41;10327934;28;20100;-59
2023/12/31 01:25:12;;;;;;;3.30;2.47;;;;;;;9.60;78.09;99471.25;10327602;28;20046;-61
2023/12/31 01:30:14;;;;;;;5.00;3.47;;;;;;;9.58;78.29;99478.50;10347661;28;20056;-58
2023/12/31 01:35:16;;;;;;;5.85;2.60;;;;;;;9.65;79.14;99467.22;10338230;28;20165;-60
2023/12/31 01:40:18;;;;;;;3.30;2.40;;;;;;;9.60;77.90;99457.97;10324881;28;20100;-60
2023/12/31 01:45:19;;;;;;;3.88;2.47;;;;;;;9.50;78.32;99445.50;10327128;28;20509;-61
2023/12/31 01:50:22;;;;;;;5.72;2.53;;;;;;;9.33;78.45;99423.06;10324248;28;20089;-59
2023/12/31 01:55:23;;;;;;;3.42;2.30;;;;;;;9.38;79.06;99439.47;10325500;28;20058;-58
2023/12/31 02:00:25;;;;;;;4.30;3.13;;;;;;;9.36;79.03;99428.13;10324037;28;20037;-62
2023/12/31 02:05:27;;;;;;;5.35;2.80;;;;;;;9.35;79.34;99410.53;10325654;28;20049;-61
2023/12/31 02:10:28;;;;;;;3.80;2.88;;;;;;;9.31;78.99;99405.63;10320812;28;20090;-61
2023/12/31 02:15:32;;;;;;;3.83;2.40;;;;;;;9.27;79.59;99396.22;10323720;28;20141;-59
2023/12/31 02:20:33;;;;;;;2.95;2.30;;;;;;;9.30;79.38;99406.59;10327814;28;21396;-61
2023/12/31 02:25:38;;;;;;;5.40;2.65;;;;;;;9.25;78.77;99399.03;10325385;28;20092;-62
2023/12/31 02:30:39;;;;;;;3.33;2.30;;;;;;;9.27;78.69;99393.56;10323172;28;21289;-60
2023/12/31 02:35:41;;;;;;;4.10;2.42;;;;;;;9.29;78.57;99373.03;10322020;28;20332;-63
2023/12/31 02:40:43;;;;;;;3.33;2.13;;;;;;;9.24;78.62;99346.06;10325449;28;20688;-61
2023/12/31 02:45:44;;;;;;;5.60;2.60;;;;;;;9.18;78.98;99329.69;10325312;28;20056;-61
2023/12/31 02:50:46;;;;;;;6.28;2.60;;;;;;;9.04;78.93;99308.84;10324227;28;20080;-60
2023/12/31 02:55:47;;;;;;;2.80;2.35;;;;;;;9.09;79.44;99298.66;10323590;28;20556;-58
2023/12/31 03:00:49;;;;;;;2.72;2.03;;;;;;;9.02;78.63;99297.50;10325711;28;20227;-61
2023/12/31 03:05:50;;;;;;;3.00;2.30;;;;;;;9.05;79.15;99289.25;10325692;28;20064;-61
2023/12/31 03:10:52;;;;;;;3.28;2.15;;;;;;;8.96;78.22;99292.75;10319269;28;20061;-61
2023/12/31 03:15:54;;;;;;;3.15;2.28;;;;;;;8.89;79.19;99281.00;10320166;28;20042;-60
2023/12/31 03:20:56;;;;;;;4.30;2.20;;;;;;;8.93;78.66;99308.94;10324118;28;20691;-60
2023/12/31 03:25:57;;;;;;;2.53;1.90;;;;;;;8.98;79.66;99298.78;10321731;28;20455;-59
2023/12/31 03:31:03;;;;;;;3.63;2.40;;;;;;;8.91;78.60;99281.72;10338820;28;20053;-60
2023/12/31 03:36:06;;;;;;;3.40;2.28;;;;;;;8.95;78.41;99278.66;10322706;28;20057;-59
2023/12/31 03:41:07;;;;;;;4.03;2.25;;;;;;;8.85;78.56;99273.31;10330870;28;20054;-61
2023/12/31 03:46:09;;;;;;;3.45;2.47;;;;;;;8.94;78.96;99278.78;10320656;28;20168;-61
2023/12/31 03:51:10;;;;;;;3.30;2.20;;;;;;;8.97;78.69;99275.84;10320564;28;20046;-60
2023/12/31 03:56:12;;;;;;;3.88;2.35;;;;;;;8.90;78.01;99250.84;10321232;28;20073;-61
2023/12/31 04:01:13;;;;;;;4.18;2.20;;;;;;;8.79;78.32;99244.66;10322988;28;20054;-61
2023/12/31 04:06:15;;;;;;;4.63;2.50;;;;;;;8.80;78.25;99229.59;10322303;28;20072;-60
2023/12/31 04:11:16;;;;;;;4.63;2.33;;;;;;;8.73;78.94;99220.50;10319721;28;20046;-61
2023/12/31 04:16:17;;;;;;;3.45;2.17;;;;;;;8.80;78.70;99209.19;10322187;28;20478;-61
2023/12/31 04:21:19;;;;;;;3.25;2.40;;;;;;;8.75;78.18;99195.53;10322034;28;20064;-61
2023/12/31 04:26:20;;;;;;;4.38;2.60;;;;;;;8.75;77.97;99206.13;10321164;28;20042;-60
2023/12/31 04:31:22;;;;;;;3.55;2.83;;;;;;;8.63;78.24;99197.47;10324088;28;20065;-60
2023/12/31 04:36:23;;;;;;;2.80;2.47;;;;;;;8.65;78.85;99198.16;10337406;28;20053;-60
2023/12/31 04:41:24;;;;;;;4.25;2.65;;;;;;;8.65;78.39;99189.34;10326873;28;20061;-60
2023/12/31 04:46:26;;;;;;;3.60;2.75;;;;;;;8.65;78.57;99179.56;10326363;28;20586;-62
2023/12/31 04:51:29;;;;;;;2.88;2.45;;;;;;;8.69;78.20;99169.50;10323860;28;20046;-61
2023/12/31 04:56:30;;;;;;;2.75;2.10;;;;;;;8.45;77.85;99138.94;10330168;28;20549;-62
2023/12/31 05:01:32;;;;;;;3.53;2.40;;;;;;;8.62;78.46;99163.94;10323231;28;20141;-62
2023/12/31 05:06:33;;;;;;;3.03;2.42;;;;;;;8.59;78.11;99147.47;10327310;28;20108;-62
2023/12/31 05:11:35;;;;;;;3.00;2.35;;;;;;;8.65;77.80;99136.31;10347953;28;20053;-60
2023/12/31 05:16:36;;;;;;;3.85;2.50;;;;;;;8.69;78.00;99127.06;10357048;28;20050;-60
2023/12/31 05:21:39;;;;;;;3.92;2.97;;;;;;;8.54;77.59;99101.94;10322799;28;20050;-62
2023/12/31 05:26:41;;;;;;;2.85;2.50;;;;;;;8.62;77.46;99104.75;10324512;28;20706;-59
2023/12/31 05:31:43;;;;;;;3.15;2.63;;;;;;;8.61;77.83;99113.69;10347457;28;20060;-60
2023/12/31 05:36:44;;;;;;;3.55;2.35;;;;;;;8.47;78.02;99073.31;10324915;28;20144;-62
2023/12/31 05:41:47;;;;;;;3.30;2.38;;;;;;;8.69;77.71;99097.88;10328722;28;20135;-61
2023/12/31 05:46:49;;;;;;;4.38;3.13;;;;;;;8.73;78.19;99090.50;10324110;28;20057;-62
2023/12/31 05:51:50;;;;;;;4.43;3.65;;;;;;;8.71;77.46;99081.81;10323371;28;20056;-60
2023/12/31 05:56:53;;;;;;;3.20;2.60;;;;;;;8.71;77.73;99069.41;10325463;28;20133;-62
2023/12/31 06:01:58;;;;;;;3.17;2.33;;;;;;;8.71;77.17;99072.06;10327330;28;20119;-61
2023/12/31 06:07:00;;;;;;;3.17;2.50;;;;;;;8.73;77.65;99069.28;10325881;28;20664;-59
2023/12/31 06:12:02;;;;;;;4.28;2.72;;;;;;;8.72;77.25;99062.28;10323283;28;20061;-60
2023/12/31 06:17:03;;;;;;;4.53;2.95;;;;;;;8.70;77.36;99057.13;10323738;28;20054;-60
2023/12/31 06:22:06;;;;;;;3.10;2.85;;;;;;;8.70;77.42;99046.50;10324948;28;20816;-60
2023/12/31 06:27:08;;;;;;;3.33;2.92;;;;;;;8.65;77.13;99043.44;10326916;28;20656;-59
2023/12/31 06:32:09;;;;;;;3.17;2.88;;;;;;;8.73;78.39;99038.25;10321429;28;20841;-60
2023/12/31 06:37:11;;;;;;;3.42;2.47;;;;;;;8.70;77.25;99043.03;10346651;28;20151;-62
2023/12/31 06:42:13;;;;;;;2.50;2.30;;;;;;;8.75;77.26;99046.94;10315490;28;20064;-59
2023/12/31 06:47:16;;;;;;;5.03;2.58;;;;;;;8.87;77.00;99042.28;10324314;28;20140;-62
2023/12/31 06:52:18;;;;;;;2.97;2.53;;;;;;;8.90;77.22;99044.66;10320812;28;20086;-62
2023/12/31 06:57:21;;;;;;;3.35;3.05;;;;;;;9.00;76.49;99047.31;10336738;28;20046;-61
2023/12/31 07:02:23;;;;;;;3.05;2.70;;;;;;;9.06;76.30;99038.75;10322613;28;20054;-61
2023/12/31 07:07:24;;;;;;;3.47;2.50;;;;;;;9.08;75.86;99052.72;10320700;28;20046;-61
2023/12/31 07:12:26;;;;;;;5.30;2.88;;;;;;;9.08;75.28;99051.91;10323002;28;21060;-61
2023/12/31 07:17:27;;;;;;;3.58;2.70;;;;;;;9.16;76.37;99049.38;10324276;28;20045;-65
2023/12/31 07:22:31;;;;;;;4.38;2.55;;;;;;;9.23;76.44;99050.44;10320692;28;20172;-63
2023/12/31 07:27:33;;;;;;;3.00;2.30;;;;;;;9.30;76.98;99048.06;10321319;28;20050;-63
2023/12/31 07:32:36;;;;;;;3.75;3.00;;;;;;;9.20;76.88;99030.34;10319915;28;20057;-63
2023/12/31 07:37:38;;;;;;;3.15;2.80;;;;;;;9.23;75.88;99029.22;10318609;28;20053;-63
2023/12/31 07:42:40;;;;;;;3.75;3.05;;;;;;;9.19;76.06;99012.75;10320197;28;20061;-64
2023/12/31 07:47:42;;;;;;;2.78;2.20;;;;;;;9.20;75.32;99025.03;10322706;28;20586;-64
2023/12/31 07:52:44;;;;;;;3.25;2.95;;;;;;;9.27;75.79;99021.81;10321128;28;20134;-62
2023/12/31 07:57:45;;;;;;;3.90;3.40;;;;;;;9.23;75.24;99002.66;10319779;28;20163;-64
2023/12/31 08:02:47;;;;;;;4.55;3.30;;;;;;;9.25;75.28;99000.72;10325847;28;20696;-64
2023/12/31 08:07:49;;;;;;;5.30;4.80;;;;;;;9.24;75.13;99001.69;10322434;28;20058;-65
2023/12/31 08:12:52;;;;;;;7.63;4.63;;;;;;;9.28;75.61;98989.78;10323917;28;20504;-64
2023/12/31 08:17:54;;;;;;;4.35;3.63;;;;;;;9.36;74.92;99000.50;10337983;28;20065;-63
2023/12/31 08:22:55;;;;;;;4.57;3.40;;;;;;;9.32;74.91;98992.97;10335143;28;20153;-64
2023/12/31 08:27:57;;;;;;;4.82;3.33;;;;;;;9.35;75.71;98990.03;10333687;28;20714;-65
2023/12/31 08:32:59;;;;;;;4.97;3.17;;;;;;;9.36;75.33;98976.59;10339339;28;20072;-64
2023/12/31 08:38:02;;;;;;;5.60;2.72;;;;;;;9.36;76.38;98975.78;10331562;28;20058;-59
2023/12/31 08:43:06;;;;;;;3.60;2.95;;;;;;;9.28;77.02;98970.38;10332675;28;20061;-65
2023/12/31 08:48:07;;;;;;;4.80;3.30;;;;;;;9.36;77.39;98965.97;10354227;28;20064;-64
2023/12/31 08:53:09;;;;;;;4.68;3.17;;;;;;;9.41;78.26;98954.91;10331173;28;20053;-65
2023/12/31 08:58:12;;;;;;;5.18;3.38;;;;;;;9.27;77.76;98921.72;10326719;28;20076;-65
2023/12/31 09:03:13;;;;;;;5.07;2.95;;;;;;;9.43;77.95;98925.56;10328837;28;20580;-64
2023/12/31 09:08:15;;;;;;;4.65;3.45;;;;;;;9.51;78.22;98947.72;10327442;28;20058;-65
2023/12/31 09:13:17;;;;;;;6.25;2.88;;;;;;;9.46;78.01;98938.56;10331544;28;20472;-65
2023/12/31 09:18:19;;;;;;;5.38;3.03;;;;;;;9.51;78.16;98931.78;10330627;28;20196;-66
2023/12/31 09:23:20;;;;;;;4.22;3.08;;;;;;;9.54;77.79;98944.78;10331323;28;20562;-64
2023/12/31 09:28:22;;;;;;;4.20;3.10;;;;;;;9.55;77.80;98943.81;10332437;28;20056;-64
2023/12/31 09:33:23;;;;;;;4.38;3.38;;;;;;;9.62;78.54;98945.84;10332562;28;20052;-64
2023/12/31 09:38:25;;;;;;;4.75;3.47;;;;;;;9.51;79.51;98958.34;10331132;28;20137;-64
2023/12/31 09:43:27;;;;;;;4.03;2.80;;;;;;;9.46;79.90;98923.44;10330725;28;20061;-66
2023/12/31 09:48:29;;;;;;;5.40;3.13;;;;;;;9.54;80.50;98915.56;10325366;28;20050;-66
2023/12/31 09:53:31;;;;;;;4.32;2.22;;;;;;;9.48;79.62;98908.19;10329638;28;20659;-65
2023/12/31 09:58:35;;;;;;;3.40;3.10;;;;;;;9.44;80.15;98905.97;10325243;28;20514;-66
2023/12/31 10:03:38;;;;;;;5.75;5.22;;;;;;;9.51;80.23;98921.16;10328393;28;20061;-64
2023/12/31 10:08:40;;;;;;;6.30;5.07;;;;;;;9.55;79.80;98906.59;10327869;28;20148;-64
2023/12/31 10:13:41;;;;;;;6.22;3.67;;;;;;;9.51;78.62;98891.13;10329683;28;20124;-67
2023/12/31 10:18:43;;;;;;;4.38;2.75;;;;;;;9.50;79.33;98882.34;10333143;28;20050;-64
2023/12/31 10:23:45;;;;;;;24.80;22.48;;;;;;;9.46;78.60;98872.97;10328285;28;20076;-64
2023/12/31 10:28:51;;;;;;;4.28;3.47;;;;;;;9.46;80.01;98853.56;10333123;28;20045;-63
2023/12/31 10:33:53;;;;;;;3.25;2.72;;;;;;;9.44;80.73;98828.97;10339504;28;20060;-64
2023/12/31 10:38:55;;;;;;;4.82;4.05;;;;;;;9.41;81.82;98819.47;10327325;28;20054;-64
2023/12/31 10:44:03;;;;;;;5.35;4.85;;;;;;;9.31;80.85;98797.47;10322391;28;20566;-63
2023/12/31 10:49:05;;;;;;;9.20;8.40;;;;;;;9.42;79.77;98807.88;10323653;28;21312;-66
2023/12/31 10:54:09;;;;;;;8.35;7.50;;;;;;;9.50;80.42;98801.78;10323104;28;20093;-64
2023/12/31 10:59:11;;;;;;;7.30;6.60;;;;;;;9.44;81.15;98789.94;10318239;28;20045;-63
2023/12/31 11:04:15;;;;;;;6.90;6.25;;;;;;;9.45;81.21;98788.13;10322455;28;20128;-65
2023/12/31 11:09:19;;;;;;;6.75;5.22;;;;;;;9.47;82.29;98778.19;10350161;28;20531;-62
2023/12/31 11:14:29;;;;;;;6.80;6.20;;;;;;;9.52;83.18;98779.41;10320771;28;20132;-66
2023/12/31 11:20:08;;;;;;;5.18;4.68;;;;;;;9.47;82.14;98773.72;10341230;28;20050;-64
2023/12/31 11:25:09;;;;;;;4.68;3.70;;;;;;;9.53;81.35;98770.47;10318231;28;20121;-65
2023/12/31 11:30:12;;;;;;;2.30;2.05;;;;;;;9.61;79.87;98806.03;10323273;28;20061;-65
2023/12/31 11:35:52;;;;;;;6.28;2.83;;;;;;;9.48;83.88;98852.41;10320531;28;20064;-64
2023/12/31 11:40:54;;;;;;;4.05;2.03;;;;;;;9.48;85.43;98822.38;10322315;28;20045;-65
2023/12/31 11:45:56;;;;;;;3.05;2.15;;;;;;;9.60;86.84;98812.34;10324830;28;20053;-65
2023/12/31 11:51:01;;;;;;;2.58;1.80;;;;;;;9.60;85.48;98812.34;10320565;28;20046;-64
2023/12/31 11:56:02;;;;;;;;;;;;;;;9.61;86.40;98808.69;10334083;28;20143;-63
2023/12/31 12:01:04;;;;;;;3.17;2.13;;;;;;;9.53;86.00;98774.91;10325808;28;19930;-64
2023/12/31 12:06:05;;;;;;;2.20;1.80;;;;;;;9.61;86.27;98779.47;10350345;28;20213;-64
2023/12/31 12:11:07;;;;;;;2.78;2.58;;;;;;;9.61;87.07;98779.47;10331882;28;20073;-64
2023/12/31 12:16:09;;;;;;;3.67;2.70;;;;;;;9.49;86.75;98769.09;10335733;28;20074;-64
2023/12/31 12:21:11;;;;;;;3.88;2.88;;;;;;;9.52;87.18;98766.13;10332184;28;20060;-63
2023/12/31 12:26:12;;;;;;;5.32;4.10;;;;;;;9.64;86.63;98776.53;10350237;28;20050;-65
2023/12/31 12:31:15;;;;;;;6.50;4.72;;;;;;;9.58;87.70;98772.66;10361868;28;20599;-65
2023/12/31 12:36:23;;;;;;;2.83;2.40;;;;;;;9.56;87.28;98774.59;10331893;28;20254;-65
2023/12/31 12:41:24;;;;;;;3.42;2.60;;;;;;;9.61;86.66;98793.59;10330917;28;20042;-64
2023/12/31 12:46:27;;;;;;;4.78;2.35;;;;;;;9.63;86.96;98780.97;10344094;28;20129;-64
2023/12/31 12:51:28;;;;;;;2.17;1.88;;;;;;;9.55;86.64;98776.44;10344568;28;20603;-65
2023/12/31 12:56:31;;;;;;;2.20;1.58;;;;;;;9.65;86.62;98794.97;10344810;28;20625;-65
2023/12/31 13:01:33;;;;;;;3.47;1.70;;;;;;;9.61;85.98;98795.41;10326198;28;20049;-64
2023/12/31 13:06:35;;;;;;;5.30;4.57;;;;;;;9.72;85.91;98795.19;10349830;28;20528;-65
2023/12/31 13:11:37;;;;;;;4.75;3.22;;;;;;;9.74;85.64;98795.84;10333573;28;20065;-64
2023/12/31 13:16:39;;;;;;;6.40;5.38;;;;;;;9.68;85.20;98805.28;10336134;28;20057;-64
2023/12/31 13:21:50;;;;;;;2.97;2.08;;;;;;;9.72;84.93;98805.81;10338223;28;20623;-66
2023/12/31 13:26:52;;;;;;;1.85;0.95;;;;;;;9.68;84.17;98799.13;10359009;28;20472;-64
2023/12/31 13:31:54;;;;;;;1.92;0.90;;;;;;;9.70;82.93;98805.97;10322920;28;20167;-65
2023/12/31 13:36:55;;;;;;;2.42;1.08;;;;;;;9.83;85.66;98797.59;10340890;28;20096;-62
2023/12/31 13:41:57;;;;;;;2.13;0.90;;;;;;;9.87;82.40;98814.06;10331176;28;20093;-62
2023/12/31 13:46:58;;;;;;;1.42;0.57;;;;;;;9.87;82.47;98825.53;10327482;28;20057;-64
2023/12/31 13:52:02;;;;;;;1.40;0.60;;;;;;;9.72;82.22;98811.13;10318192;28;20058;-65
2023/12/31 13:57:04;;;;;;;1.30;0.60;;;;;;;9.55;82.53;98784.41;10329670;28;20058;-65
2023/12/31 14:02:05;;;;;;;2.67;0.63;;;;;;;9.73;82.19;98831.41;10326593;28;20053;-64
2023/12/31 14:07:07;;;;;;;2.05;0.68;;;;;;;9.47;81.28;98805.59;10321441;28;20057;-66
2023/12/31 14:12:19;;;;;;;1.17;0.57;;;;;;;9.68;81.68;98831.00;10319325;28;20061;-66
2023/12/31 14:17:21;;;;;;;3.58;0.65;;;;;;;9.73;80.21;98826.09;10323648;28;20108;-65
2023/12/31 14:22:22;;;;;;;12.57;6.18;;;;;;;9.66;80.18;98811.72;10328314;28;20108;-64
2023/12/31 14:27:24;;;;;;;6.07;1.45;;;;;;;9.72;80.29;98822.56;10323597;28;20050;-64
2023/12/31 14:32:28;;;;;;;3.67;1.47;;;;;;;9.66;79.66;98817.03;10321738;28;20057;-65
2023/12/31 14:37:30;;;;;;;9.38;5.15;;;;;;;9.68;79.83;98825.69;10323265;28;20669;-65
2023/12/31 14:42:31;;;;;;;4.03;1.30;;;;;;;9.67;79.49;98845.28;10323235;28;20043;-64
2023/12/31 14:47:33;;;;;;;1.60;0.60;;;;;;;9.66;79.56;98844.44;10323708;28;20049;-66
2023/12/31 14:52:35;;;;;;;1.52;0.80;;;;;;;9.61;78.46;98830.78;10322111;28;20050;-65
2023/12/31 14:57:38;;;;;;;3.22;0.95;;;;;;;9.62;78.84;98852.88;10328493;28;20603;-65
2023/12/31 15:02:41;;;;;;;3.28;0.70;;;;;;;9.62;78.99;98858.19;10346015;28;20080;-64
2023/12/31 15:07:43;;;;;;;1.73;0.80;;;;;;;9.54;78.16;98862.44;10326551;28;21385;-65
2023/12/31 15:12:45;;;;;;;1.73;0.32;;;;;;;9.58;79.12;98888.69;10324121;28;20111;-65
2023/12/31 15:17:46;;;;;;;2.92;0.77;;;;;;;9.62;78.18;98895.38;10344422;28;20050;-64
2023/12/31 15:22:49;;;;;;;3.33;1.45;;;;;;;9.59;77.84;98890.38;10322074;28;20589;-65
2023/12/31 15:27:54;;;;;;;1.88;0.77;;;;;;;9.54;78.10;98886.34;10334111;28;23369;-65
2023/12/31 15:32:58;;;;;;;2.92;0.57;;;;;;;9.60;77.84;98897.38;10344743;28;20045;-64
2023/12/31 15:38:05;;;;;;;2.47;1.40;;;;;;;9.49;78.01;98880.66;10330535;28;20045;-66
2023/12/31 15:43:08;;;;;;;4.38;2.20;;;;;;;9.40;78.82;98902.81;10325625;28;20526;-66
2023/12/31 15:48:10;;;;;;;4.13;1.70;;;;;;;9.43;79.23;98881.25;10326931;28;20125;-66
2023/12/31 15:53:12;;;;;;;1.77;0.60;;;;;;;9.47;79.17;98905.69;10319405;28;20101;-65
2023/12/31 15:58:14;;;;;;;2.67;1.00;;;;;;;9.34;79.42;98908.72;10332261;28;20103;-66
2023/12/31 16:03:15;;;;;;;1.42;0.60;;;;;;;9.33;79.50;98930.94;10327281;28;20057;-66
2023/12/31 16:08:17;;;;;;;1.55;0.40;;;;;;;9.32;79.67;98924.78;10322144;28;20062;-67
2023/12/31 16:13:19;;;;;;;3.35;0.85;;;;;;;9.41;79.38;98940.81;10343431;28;20056;-65
2023/12/31 16:18:21;;;;;;;2.25;0.75;;;;;;;9.35;79.32;98950.19;10325347;28;20080;-66
2023/12/31 16:23:22;;;;;;;2.25;0.93;;;;;;;9.26;79.99;98935.97;10322895;28;20049;-66
2023/12/31 16:28:24;;;;;;;2.92;0.98;;;;;;;9.29;80.15;98954.31;10325572;28;21533;-65
2023/12/31 16:33:25;;;;;;;6.18;2.72;;;;;;;9.18;80.55;98957.97;10322332;28;20057;-65
2023/12/31 16:38:27;;;;;;;5.00;1.60;;;;;;;9.20;80.77;98977.25;10327922;28;20064;-66
2023/12/31 16:43:30;;;;;;;5.80;2.05;;;;;;;9.18;80.79;98983.69;10328728;28;20837;-65
2023/12/31 16:48:31;;;;;;;5.75;2.33;;;;;;;9.27;80.60;98987.28;10331976;28;20058;-66
2023/12/31 16:53:33;;;;;;;6.03;4.05;;;;;;;9.23;79.96;98996.53;10322926;28;20096;-66
2023/12/31 16:58:34;;;;;;;3.90;1.88;;;;;;;9.09;80.59;98998.66;10335162;28;20066;-67
2023/12/31 17:03:35;;;;;;;4.15;1.65;;;;;;;9.03;80.54;99020.47;10358396;28;20061;-62
2023/12/31 17:08:37;;;;;;;1.80;1.30;;;;;;;8.96;80.93;99019.38;10324631;28;20053;-65
2023/12/31 17:13:40;;;;;;;1.77;1.23;;;;;;;8.82;81.64;98994.94;10372727;28;20057;-64
2023/12/31 17:18:41;;;;;;;8.77;5.68;;;;;;;8.77;81.90;98985.78;10344083;28;20054;-65
2023/12/31 17:23:46;;;;;;;2.37;1.33;;;;;;;8.85;81.74;98989.34;10328798;28;20057;-65
2023/12/31 17:28:47;;;;;;;6.93;5.25;;;;;;;8.79;81.80;98994.41;10330398;28;20095;-65
2023/12/31 17:33:49;;;;;;;8.63;7.80;;;;;;;8.78;81.96;98990.94;10339576;28;20178;-65
2023/12/31 17:38:51;;;;;;;4.45;4.03;;;;;;;8.71;81.62;98988.97;10338117;28;20451;-65
2023/12/31 17:43:52;;;;;;;14.07;12.68;;;;;;;8.72;81.67;98995.97;10328455;28;20046;-65
2023/12/31 17:48:54;;;;;;;15.30;12.52;;;;;;;8.79;81.01;99011.16;10325009;28;20050;-65
2023/12/31 17:53:55;;;;;;;12.18;9.48;;;;;;;8.77;80.85;99013.13;10331861;28;20967;-65
2023/12/31 17:58:57;;;;;;;19.77;17.80;;;;;;;8.70;80.66;99000.59;10342788;28;20072;-64
2023/12/31 18:03:59;;;;;;;3.25;1.92;;;;;;;8.78;79.83;99008.66;10333060;28;20057;-65
2023/12/31 18:09:00;;;;;;;6.55;3.90;;;;;;;8.79;79.42;99002.38;10330294;28;20077;-65
2023/12/31 18:14:01;;;;;;;22.63;17.95;;;;;;;8.80;79.16;99002.22;10347065;28;20233;-65
2023/12/31 18:19:03;;;;;;;11.07;7.40;;;;;;;8.87;78.47;99017.56;10325088;28;20774;-65
2023/12/31 18:24:05;;;;;;;4.40;2.65;;;;;;;8.73;78.29;99017.03;10328827;28;20041;-65
2023/12/31 18:29:07;;;;;;;7.88;4.88;;;;;;;8.65;77.99;98998.34;10328577;28;20053;-66
2023/12/31 18:34:09;;;;;;;10.80;8.98;;;;;;;8.49;77.34;98996.28;10326236;28;20153;-65
2023/12/31 18:39:11;;;;;;;5.75;3.00;;;;;;;8.69;77.56;99026.25;10323100;28;20050;-64
2023/12/31 18:44:12;;;;;;;6.22;4.50;;;;;;;8.65;77.88;99041.63;10322636;28;20049;-63
2023/12/31 18:49:15;;;;;;;9.63;6.38;;;;;;;8.43;78.04;99021.50;10325554;28;20045;-64
2023/12/31 18:54:16;;;;;;;7.53;4.68;;;;;;;8.33;78.27;99015.34;10324541;28;20462;-63
2023/12/31 18:59:18;;;;;;;10.15;7.13;;;;;;;8.41;78.45;99043.84;10319503;28;20134;-64
2023/12/31 19:04:19;;;;;;;7.40;5.03;;;;;;;8.45;78.58;99054.06;10317904;28;20058;-66
2023/12/31 19:09:23;;;;;;;5.57;2.58;;;;;;;8.35;78.71;99047.88;10335534;28;20058;-65
2023/12/31 19:14:24;;;;;;;6.53;3.75;;;;;;;8.27;78.89;99061.84;10322653;28;20647;-62
2023/12/31 19:19:28;;;;;;;3.50;1.90;;;;;;;8.35;78.88;99074.41;10321081;28;20704;-64
2023/12/31 19:24:30;;;;;;;4.85;2.10;;;;;;;8.26;79.12;99083.19;10319960;28;20184;-65
2023/12/31 19:29:31;;;;;;;4.72;2.05;;;;;;;8.32;79.52;99070.19;10321975;28;20050;-66
2023/12/31 19:34:33;;;;;;;6.30;3.63;;;;;;;8.34;79.16;99070.06;10334292;28;20533;-64
2023/12/31 19:39:35;;;;;;;2.70;1.88;;;;;;;8.11;79.01;99033.22;10332180;28;20392;-65
2023/12/31 19:44:38;;;;;;;3.22;1.70;;;;;;;8.16;78.77;99064.59;10310369;28;20058;-66
2023/12/31 19:49:41;;;;;;;6.05;2.30;;;;;;;8.20;79.09;99081.09;10347998;28;20581;-64
2023/12/31 19:54:58;;;;;;;7.35;3.55;;;;;;;8.07;79.27;99068.91;10322802;28;20175;-64
2023/12/31 20:00:01;;;;;;;7.00;2.85;;;;;;;8.07;80.00;99095.41;10321600;28;20426;-65
2023/12/31 20:05:05;;;;;;;4.50;2.13;;;;;;;8.09;79.36;99077.56;10325274;28;20080;-65
2023/12/31 20:10:07;;;;;;;3.75;2.58;;;;;;;8.03;79.88;99070.19;10319509;28;20046;-63
2023/12/31 20:15:08;;;;;;;4.32;2.50;;;;;;;8.08;80.00;99065.28;10332444;28;20160;-64
2023/12/31 20:20:10;;;;;;;6.20;3.50;;;;;;;8.01;80.50;99080.06;10343826;28;20245;-66
2023/12/31 20:25:15;;;;;;;4.88;2.95;;;;;;;8.00;80.60;99065.16;10335725;28;20061;-65
2023/12/31 20:30:16;;;;;;;4.60;3.20;;;;;;;7.95;80.76;99062.88;10330683;28;20193;-63
2023/12/31 20:35:19;;;;;;;7.80;3.63;;;;;;;7.93;80.97;99062.19;10330974;28;20057;-64
2023/12/31 20:40:23;;;;;;;4.13;3.40;;;;;;;7.84;81.29;99067.47;10332741;28;20139;-65
2023/12/31 20:45:26;;;;;;;12.63;8.90;;;;;;;7.96;81.35;99077.81;10329018;28;20508;-65
2023/12/31 20:50:27;;;;;;;4.97;3.22;;;;;;;7.84;81.52;99078.06;10328853;28;20054;-63
2023/12/31 20:55:31;;;;;;;3.83;2.45;;;;;;;7.84;81.65;99084.19;10332041;28;20766;-66
2023/12/31 21:00:33;;;;;;;6.05;3.00;;;;;;;7.90;83.10;99077.53;10329754;28;20064;-67
2023/12/31 21:05:35;;;;;;;4.72;2.55;;;;;;;8.01;82.36;99088.00;10354881;28;20136;-65
2023/12/31 21:10:37;;;;;;;4.75;2.88;;;;;;;8.01;81.19;99084.53;10331049;28;20052;-65
2023/12/31 21:15:40;;;;;;;5.55;4.50;;;;;;;7.97;80.84;99083.94;10329670;28;20062;-63
2023/12/31 21:20:41;;;;;;;9.10;7.10;;;;;;;8.02;80.77;99086.22;10327443;28;20077;-60
2023/12/31 21:25:44;;;;;;;13.45;7.55;;;;;;;7.89;80.51;99075.84;10325459;28;20058;-61
2023/12/31 21:30:46;;;;;;;6.47;3.70;;;;;;;7.81;81.09;99078.31;10326718;28;21238;-61
2023/12/31 21:35:48;;;;;;;17.58;9.82;;;;;;;7.83;81.28;99060.50;10322783;28;20057;-62
2023/12/31 21:40:50;;;;;;;5.90;4.10;;;;;;;7.89;80.58;99054.66;10323841;28;20049;-62
2023/12/31 21:45:52;;;;;;;7.65;4.50;;;;;;;7.86;80.98;99061.03;10347749;28;20050;-62
2023/12/31 21:50:55;;;;;;;6.00;5.13;;;;;;;7.82;81.06;99049.06;10360595;28;20050;-62
2023/12/31 21:55:56;;;;;;;16.33;13.40;;;;;;;7.88;80.79;99059.13;10325807;28;20433;-61
2023/12/31 22:01:18;;;;;;;7.03;5.28;;;;;;;7.84;80.99;99067.47;10323316;28;20053;-61
2023/12/31 22:06:19;;;;;;;11.55;8.98;;;;;;;7.78;81.19;99063.53;10332931;28;21055;-61
2023/12/31 22:11:21;;;;;;;9.23;5.63;;;;;;;7.75;81.46;99069.94;10324934;28;20092;-61
2023/12/31 22:16:22;;;;;;;7.15;4.93;;;;;;;7.63;82.09;99068.38;10356896;28;20133;-61
2023/12/31 22:21:24;;;;;;;11.40;7.47;;;;;;;7.61;82.57;99076.47;10345278;28;20136;-63
2023/12/31 22:26:25;;;;;;;10.43;5.75;;;;;;;7.59;82.68;99073.09;10330738;28;20511;-61
2023/12/31 22:31:27;;;;;;;7.70;6.28;;;;;;;7.59;82.87;99075.72;10323868;28;20656;-63
2023/12/31 22:36:28;;;;;;;9.65;7.80;;;;;;;7.49;83.17;99074.88;10324886;28;20065;-63
2023/12/31 22:41:29;;;;;;;12.18;9.70;;;;;;;7.60;83.25;99076.59;10320866;28;22537;-63
2023/12/31 22:46:31;;;;;;;16.02;10.32;;;;;;;7.61;83.41;99078.25;10323646;28;20054;-63
2023/12/31 22:51:33;;;;;;;9.68;6.47;;;;;;;7.59;83.20;99074.91;10323642;28;20057;-62
2023/12/31 22:56:34;;;;;;;20.15;14.57;;;;;;;7.63;83.24;99076.31;10325237;28;20160;-62
2023/12/31 23:01:37;;;;;;;20.80;18.58;;;;;;;7.70;83.13;99077.47;10335402;28;20045;-63
2023/12/31 23:06:38;;;;;;;99.22;88.68;;;;;;;7.79;84.86;99073.16;10324058;28;20074;-68
2023/12/31 23:11:40;;;;;;;224.88;201.52;;;;;;;7.75;83.66;99069.94;10339474;28;20077;-61
2023/12/31 23:16:44;;;;;;;227.98;205.38;;;;;;;7.84;83.09;99072.78;10321929;28;20553;-64
2023/12/31 23:21:45;;;;;;;180.13;161.65;;;;;;;7.73;83.13;99065.75;10320685;28;20054;-63
2023/12/31 23:26:46;;;;;;;160.38;143.02;;;;;;;7.72;83.43;99070.22;10319269;28;20073;-63
2023/12/31 23:31:48;;;;;;;115.22;103.03;;;;;;;7.68;83.45;99071.44;10338072;28;20069;-63
2023/12/31 23:36:50;;;;;;;76.28;66.88;;;;;;;7.51;83.79;99048.25;10321672;28;20196;-64
2023/12/31 23:42:05;;;;;;;80.95;70.22;;;;;;;7.82;83.47;99077.34;10316106;28;20128;-64